sensor_id;sensor_type;location;lat;lon;timestamp;P1;durP1;ratioP1;P2;durP2;ratioP2
65831;SDS011;52593;42.648;23.332;2023-02-15T00:01:30;36.97;;;13.35;;
65831;SDS011;52593;42.648;23.332;2023-02-15T00:03:57;26.60;;;11.20;;
65831;SDS011;52593;42.648;23.332;2023-02-15T00:06:23;27.13;;;9.73;;
65831;SDS011;52593;42.648;23.332;2023-02-15T00:08:48;29.93;;;11.13;;
65831;SDS011;52593;42.648;23.332;2023-02-15T00:11:15;35.53;;;13.63;;
65831;SDS011;52593;42.648;23.332;2023-02-15T00:13:41;34.47;;;13.32;;
65831;SDS011;52593;42.648;23.332;2023-02-15T00:16:11;41.00;;;15.43;;
65831;SDS011;52593;42.648;23.332;2023-02-15T00:18:37;27.87;;;10.40;;
65831;SDS011;52593;42.648;23.332;2023-02-15T00:21:04;29.30;;;10.73;;
65831;SDS011;52593;42.648;23.332;2023-02-15T00:23:32;31.40;;;12.30;;
65831;SDS011;52593;42.648;23.332;2023-02-15T00:26:07;36.43;;;13.93;;
65831;SDS011;52593;42.648;23.332;2023-02-15T00:28:35;35.30;;;13.35;;
65831;SDS011;52593;42.648;23.332;2023-02-15T00:33:30;31.55;;;13.15;;
65831;SDS011;52593;42.648;23.332;2023-02-15T00:35:56;36.80;;;13.83;;
65831;SDS011;52593;42.648;23.332;2023-02-15T00:38:22;28.58;;;12.30;;
65831;SDS011;52593;42.648;23.332;2023-02-15T00:40:51;36.07;;;13.37;;
65831;SDS011;52593;42.648;23.332;2023-02-15T00:43:18;27.25;;;10.23;;
65831;SDS011;52593;42.648;23.332;2023-02-15T00:45:44;31.07;;;11.80;;
65831;SDS011;52593;42.648;23.332;2023-02-15T00:48:11;31.55;;;11.93;;
65831;SDS011;52593;42.648;23.332;2023-02-15T00:50:36;29.87;;;11.30;;
65831;SDS011;52593;42.648;23.332;2023-02-15T00:53:01;26.10;;;10.63;;
65831;SDS011;52593;42.648;23.332;2023-02-15T00:55:27;32.33;;;12.52;;
65831;SDS011;52593;42.648;23.332;2023-02-15T00:57:52;38.07;;;14.63;;
65831;SDS011;52593;42.648;23.332;2023-02-15T01:00:18;25.87;;;10.67;;
65831;SDS011;52593;42.648;23.332;2023-02-15T01:02:43;34.53;;;11.67;;
65831;SDS011;52593;42.648;23.332;2023-02-15T01:05:09;33.43;;;13.10;;
65831;SDS011;52593;42.648;23.332;2023-02-15T01:07:34;35.67;;;13.67;;
65831;SDS011;52593;42.648;23.332;2023-02-15T01:09:59;38.33;;;13.73;;
65831;SDS011;52593;42.648;23.332;2023-02-15T01:12:25;29.67;;;11.77;;
65831;SDS011;52593;42.648;23.332;2023-02-15T01:14:50;32.17;;;12.07;;
65831;SDS011;52593;42.648;23.332;2023-02-15T01:17:15;30.97;;;11.33;;
65831;SDS011;52593;42.648;23.332;2023-02-15T01:19:41;36.43;;;13.27;;
65831;SDS011;52593;42.648;23.332;2023-02-15T01:22:06;24.80;;;9.73;;
65831;SDS011;52593;42.648;23.332;2023-02-15T01:24:32;23.73;;;9.47;;
65831;SDS011;52593;42.648;23.332;2023-02-15T01:26:57;35.40;;;13.67;;
65831;SDS011;52593;42.648;23.332;2023-02-15T01:29:22;29.58;;;12.23;;
65831;SDS011;52593;42.648;23.332;2023-02-15T01:31:48;33.33;;;12.40;;
65831;SDS011;52593;42.648;23.332;2023-02-15T01:34:13;36.07;;;13.70;;
65831;SDS011;52593;42.648;23.332;2023-02-15T01:36:38;39.63;;;14.50;;
65831;SDS011;52593;42.648;23.332;2023-02-15T01:39:04;36.00;;;14.00;;
65831;SDS011;52593;42.648;23.332;2023-02-15T01:41:29;26.55;;;11.27;;
65831;SDS011;52593;42.648;23.332;2023-02-15T01:43:59;32.73;;;13.30;;
65831;SDS011;52593;42.648;23.332;2023-02-15T01:46:28;38.03;;;13.23;;
65831;SDS011;52593;42.648;23.332;2023-02-15T01:49:05;38.20;;;14.10;;
65831;SDS011;52593;42.648;23.332;2023-02-15T01:51:36;37.17;;;12.85;;
65831;SDS011;52593;42.648;23.332;2023-02-15T01:56:37;38.00;;;13.00;;
65831;SDS011;52593;42.648;23.332;2023-02-15T01:59:07;33.35;;;12.70;;
65831;SDS011;52593;42.648;23.332;2023-02-15T02:01:36;30.95;;;11.77;;
65831;SDS011;52593;42.648;23.332;2023-02-15T02:04:16;32.50;;;12.20;;
65831;SDS011;52593;42.648;23.332;2023-02-15T02:06:48;39.78;;;13.65;;
65831;SDS011;52593;42.648;23.332;2023-02-15T02:09:15;26.83;;;10.70;;
65831;SDS011;52593;42.648;23.332;2023-02-15T02:11:40;31.75;;;12.07;;
65831;SDS011;52593;42.648;23.332;2023-02-15T02:14:08;28.75;;;11.88;;
65831;SDS011;52593;42.648;23.332;2023-02-15T02:16:53;38.50;;;13.17;;
65831;SDS011;52593;42.648;23.332;2023-02-15T02:24:59;30.45;;;11.55;;
65831;SDS011;52593;42.648;23.332;2023-02-15T02:31:10;28.98;;;9.60;;
65831;SDS011;52593;42.648;23.332;2023-02-15T02:44:04;25.67;;;9.75;;
65831;SDS011;52593;42.648;23.332;2023-02-15T02:51:59;33.08;;;12.60;;
65831;SDS011;52593;42.648;23.332;2023-02-15T02:54:26;26.83;;;9.50;;
65831;SDS011;52593;42.648;23.332;2023-02-15T02:56:52;32.78;;;12.55;;
65831;SDS011;52593;42.648;23.332;2023-02-15T02:59:20;31.27;;;11.75;;
65831;SDS011;52593;42.648;23.332;2023-02-15T03:01:56;34.88;;;13.20;;
65831;SDS011;52593;42.648;23.332;2023-02-15T03:04:35;29.10;;;10.27;;
65831;SDS011;52593;42.648;23.332;2023-02-15T03:07:03;32.43;;;11.13;;
65831;SDS011;52593;42.648;23.332;2023-02-15T03:09:42;30.98;;;10.95;;
65831;SDS011;52593;42.648;23.332;2023-02-15T03:12:14;21.08;;;7.53;;
65831;SDS011;52593;42.648;23.332;2023-02-15T03:14:45;34.00;;;12.98;;
65831;SDS011;52593;42.648;23.332;2023-02-15T03:17:14;32.47;;;11.50;;
65831;SDS011;52593;42.648;23.332;2023-02-15T03:19:42;27.10;;;10.37;;
65831;SDS011;52593;42.648;23.332;2023-02-15T03:22:21;29.55;;;10.70;;
65831;SDS011;52593;42.648;23.332;2023-02-15T03:27:33;19.08;;;8.13;;
65831;SDS011;52593;42.648;23.332;2023-02-15T03:30:06;38.47;;;12.98;;
65831;SDS011;52593;42.648;23.332;2023-02-15T03:32:34;24.60;;;10.57;;
65831;SDS011;52593;42.648;23.332;2023-02-15T03:35:02;22.77;;;8.88;;
65831;SDS011;52593;42.648;23.332;2023-02-15T03:45:33;31.87;;;12.13;;
65831;SDS011;52593;42.648;23.332;2023-02-15T03:48:00;31.75;;;11.10;;
65831;SDS011;52593;42.648;23.332;2023-02-15T03:50:29;33.22;;;10.85;;
65831;SDS011;52593;42.648;23.332;2023-02-15T03:53:16;21.80;;;8.38;;
65831;SDS011;52593;42.648;23.332;2023-02-15T03:55:49;18.90;;;8.85;;
65831;SDS011;52593;42.648;23.332;2023-02-15T03:58:19;24.90;;;9.40;;
65831;SDS011;52593;42.648;23.332;2023-02-15T04:04:22;29.65;;;9.88;;
65831;SDS011;52593;42.648;23.332;2023-02-15T04:06:50;23.45;;;8.55;;
65831;SDS011;52593;42.648;23.332;2023-02-15T04:09:15;25.57;;;10.03;;
65831;SDS011;52593;42.648;23.332;2023-02-15T04:11:59;28.92;;;11.40;;
65831;SDS011;52593;42.648;23.332;2023-02-15T04:14:25;17.30;;;7.60;;
65831;SDS011;52593;42.648;23.332;2023-02-15T04:17:09;23.33;;;9.18;;
65831;SDS011;52593;42.648;23.332;2023-02-15T04:19:35;21.30;;;7.77;;
65831;SDS011;52593;42.648;23.332;2023-02-15T04:22:19;29.95;;;10.93;;
65831;SDS011;52593;42.648;23.332;2023-02-15T04:25:03;34.35;;;12.60;;
65831;SDS011;52593;42.648;23.332;2023-02-15T04:27:36;32.00;;;11.87;;
65831;SDS011;52593;42.648;23.332;2023-02-15T04:30:03;24.45;;;9.73;;
65831;SDS011;52593;42.648;23.332;2023-02-15T04:32:28;28.63;;;11.32;;
65831;SDS011;52593;42.648;23.332;2023-02-15T04:34:54;26.77;;;10.23;;
65831;SDS011;52593;42.648;23.332;2023-02-15T04:37:19;35.23;;;13.47;;
65831;SDS011;52593;42.648;23.332;2023-02-15T04:39:45;33.05;;;11.88;;
65831;SDS011;52593;42.648;23.332;2023-02-15T04:42:10;35.80;;;13.03;;
65831;SDS011;52593;42.648;23.332;2023-02-15T04:44:35;32.03;;;11.13;;
65831;SDS011;52593;42.648;23.332;2023-02-15T04:47:01;35.10;;;13.00;;
65831;SDS011;52593;42.648;23.332;2023-02-15T04:49:26;34.30;;;12.00;;
65831;SDS011;52593;42.648;23.332;2023-02-15T04:51:52;33.33;;;12.52;;
65831;SDS011;52593;42.648;23.332;2023-02-15T04:54:17;31.47;;;11.83;;
65831;SDS011;52593;42.648;23.332;2023-02-15T04:56:42;31.20;;;11.57;;
65831;SDS011;52593;42.648;23.332;2023-02-15T04:59:11;33.90;;;12.63;;
65831;SDS011;52593;42.648;23.332;2023-02-15T05:01:37;31.45;;;11.80;;
65831;SDS011;52593;42.648;23.332;2023-02-15T05:04:02;32.58;;;12.13;;
65831;SDS011;52593;42.648;23.332;2023-02-15T05:06:28;31.97;;;12.27;;
65831;SDS011;52593;42.648;23.332;2023-02-15T05:08:54;34.85;;;12.45;;
65831;SDS011;52593;42.648;23.332;2023-02-15T05:11:19;30.00;;;10.77;;
65831;SDS011;52593;42.648;23.332;2023-02-15T05:13:44;25.00;;;9.80;;
65831;SDS011;52593;42.648;23.332;2023-02-15T05:16:10;24.23;;;9.23;;
65831;SDS011;52593;42.648;23.332;2023-02-15T05:18:35;23.35;;;8.52;;
65831;SDS011;52593;42.648;23.332;2023-02-15T05:21:01;21.23;;;7.77;;
65831;SDS011;52593;42.648;23.332;2023-02-15T05:23:26;32.30;;;12.70;;
65831;SDS011;52593;42.648;23.332;2023-02-15T05:25:51;19.60;;;7.47;;
65831;SDS011;52593;42.648;23.332;2023-02-15T05:28:36;31.27;;;11.68;;
65831;SDS011;52593;42.648;23.332;2023-02-15T05:31:04;20.23;;;8.73;;
65831;SDS011;52593;42.648;23.332;2023-02-15T05:33:35;26.60;;;9.40;;
65831;SDS011;52593;42.648;23.332;2023-02-15T05:36:01;28.20;;;10.40;;
65831;SDS011;52593;42.648;23.332;2023-02-15T05:38:26;21.10;;;9.18;;
65831;SDS011;52593;42.648;23.332;2023-02-15T05:40:52;25.13;;;8.60;;
65831;SDS011;52593;42.648;23.332;2023-02-15T05:43:17;22.17;;;9.13;;
65831;SDS011;52593;42.648;23.332;2023-02-15T05:45:50;30.92;;;11.73;;
65831;SDS011;52593;42.648;23.332;2023-02-15T05:48:18;28.23;;;10.98;;
65831;SDS011;52593;42.648;23.332;2023-02-15T05:50:44;27.07;;;10.70;;
65831;SDS011;52593;42.648;23.332;2023-02-15T05:53:10;28.52;;;10.45;;
65831;SDS011;52593;42.648;23.332;2023-02-15T05:55:39;18.93;;;8.00;;
65831;SDS011;52593;42.648;23.332;2023-02-15T05:58:05;25.70;;;8.50;;
65831;SDS011;52593;42.648;23.332;2023-02-15T06:00:31;22.83;;;10.18;;
65831;SDS011;52593;42.648;23.332;2023-02-15T06:02:57;31.87;;;10.90;;
65831;SDS011;52593;42.648;23.332;2023-02-15T06:05:22;33.57;;;12.63;;
65831;SDS011;52593;42.648;23.332;2023-02-15T06:07:47;32.63;;;10.43;;
65831;SDS011;52593;42.648;23.332;2023-02-15T06:10:13;20.90;;;7.33;;
65831;SDS011;52593;42.648;23.332;2023-02-15T06:12:38;25.37;;;9.93;;
65831;SDS011;52593;42.648;23.332;2023-02-15T06:15:04;23.40;;;9.17;;
65831;SDS011;52593;42.648;23.332;2023-02-15T06:17:30;21.27;;;9.27;;
65831;SDS011;52593;42.648;23.332;2023-02-15T06:19:55;23.10;;;9.27;;
65831;SDS011;52593;42.648;23.332;2023-02-15T06:22:21;28.57;;;10.90;;
65831;SDS011;52593;42.648;23.332;2023-02-15T06:24:46;27.73;;;11.47;;
65831;SDS011;52593;42.648;23.332;2023-02-15T06:27:12;28.35;;;10.48;;
65831;SDS011;52593;42.648;23.332;2023-02-15T06:29:37;29.27;;;10.93;;
65831;SDS011;52593;42.648;23.332;2023-02-15T06:32:03;30.33;;;11.77;;
65831;SDS011;52593;42.648;23.332;2023-02-15T06:34:29;31.80;;;11.52;;
65831;SDS011;52593;42.648;23.332;2023-02-15T06:36:55;21.73;;;8.27;;
65831;SDS011;52593;42.648;23.332;2023-02-15T06:39:20;19.97;;;8.13;;
65831;SDS011;52593;42.648;23.332;2023-02-15T06:41:45;28.00;;;10.47;;
65831;SDS011;52593;42.648;23.332;2023-02-15T06:44:11;25.33;;;9.23;;
65831;SDS011;52593;42.648;23.332;2023-02-15T06:46:36;34.77;;;11.90;;
65831;SDS011;52593;42.648;23.332;2023-02-15T06:49:01;21.53;;;8.50;;
65831;SDS011;52593;42.648;23.332;2023-02-15T06:51:27;25.97;;;9.13;;
65831;SDS011;52593;42.648;23.332;2023-02-15T06:53:52;30.52;;;10.27;;
65831;SDS011;52593;42.648;23.332;2023-02-15T06:56:18;24.33;;;8.60;;
65831;SDS011;52593;42.648;23.332;2023-02-15T06:58:43;19.83;;;8.00;;
65831;SDS011;52593;42.648;23.332;2023-02-15T07:01:10;18.08;;;7.45;;
65831;SDS011;52593;42.648;23.332;2023-02-15T07:03:36;24.70;;;8.73;;
65831;SDS011;52593;42.648;23.332;2023-02-15T07:06:02;17.25;;;7.35;;
65831;SDS011;52593;42.648;23.332;2023-02-15T07:08:33;14.07;;;6.53;;
65831;SDS011;52593;42.648;23.332;2023-02-15T07:10:59;14.60;;;5.60;;
65831;SDS011;52593;42.648;23.332;2023-02-15T07:13:45;20.48;;;7.47;;
65831;SDS011;52593;42.648;23.332;2023-02-15T07:16:11;23.90;;;9.32;;
65831;SDS011;52593;42.648;23.332;2023-02-15T07:18:37;23.83;;;8.50;;
65831;SDS011;52593;42.648;23.332;2023-02-15T07:21:04;25.38;;;9.18;;
65831;SDS011;52593;42.648;23.332;2023-02-15T07:23:29;20.40;;;6.55;;
65831;SDS011;52593;42.648;23.332;2023-02-15T07:25:58;19.07;;;7.13;;
65831;SDS011;52593;42.648;23.332;2023-02-15T07:28:24;20.88;;;7.85;;
65831;SDS011;52593;42.648;23.332;2023-02-15T07:30:50;22.43;;;8.27;;
65831;SDS011;52593;42.648;23.332;2023-02-15T07:33:15;19.20;;;7.75;;
65831;SDS011;52593;42.648;23.332;2023-02-15T07:35:59;25.08;;;8.93;;
65831;SDS011;52593;42.648;23.332;2023-02-15T07:38:27;19.53;;;8.73;;
65831;SDS011;52593;42.648;23.332;2023-02-15T07:40:59;25.50;;;9.65;;
65831;SDS011;52593;42.648;23.332;2023-02-15T07:43:28;21.33;;;8.20;;
65831;SDS011;52593;42.648;23.332;2023-02-15T07:45:54;19.40;;;8.13;;
65831;SDS011;52593;42.648;23.332;2023-02-15T07:48:24;21.73;;;8.40;;
65831;SDS011;52593;42.648;23.332;2023-02-15T07:50:50;15.60;;;6.40;;
65831;SDS011;52593;42.648;23.332;2023-02-15T07:53:15;26.40;;;8.93;;
65831;SDS011;52593;42.648;23.332;2023-02-15T07:55:40;19.47;;;9.30;;
65831;SDS011;52593;42.648;23.332;2023-02-15T07:58:06;21.73;;;8.57;;
65831;SDS011;52593;42.648;23.332;2023-02-15T08:00:31;15.33;;;7.10;;
65831;SDS011;52593;42.648;23.332;2023-02-15T08:03:16;17.42;;;7.22;;
65831;SDS011;52593;42.648;23.332;2023-02-15T08:05:42;17.53;;;7.53;;
65831;SDS011;52593;42.648;23.332;2023-02-15T08:08:10;23.60;;;9.57;;
65831;SDS011;52593;42.648;23.332;2023-02-15T08:13:57;15.97;;;6.43;;
65831;SDS011;52593;42.648;23.332;2023-02-15T08:16:49;25.30;;;8.70;;
65831;SDS011;52593;42.648;23.332;2023-02-15T08:19:24;26.13;;;9.38;;
65831;SDS011;52593;42.648;23.332;2023-02-15T08:24:24;20.23;;;7.63;;
65831;SDS011;52593;42.648;23.332;2023-02-15T08:26:51;16.73;;;7.03;;
65831;SDS011;52593;42.648;23.332;2023-02-15T08:29:18;23.42;;;7.25;;
65831;SDS011;52593;42.648;23.332;2023-02-15T08:31:45;21.23;;;8.30;;
65831;SDS011;52593;42.648;23.332;2023-02-15T08:34:11;15.70;;;6.53;;
65831;SDS011;52593;42.648;23.332;2023-02-15T08:36:39;20.58;;;7.22;;
65831;SDS011;52593;42.648;23.332;2023-02-15T08:39:06;13.57;;;6.20;;
65831;SDS011;52593;42.648;23.332;2023-02-15T08:41:32;16.23;;;5.53;;
65831;SDS011;52593;42.648;23.332;2023-02-15T08:44:00;17.42;;;8.13;;
65831;SDS011;52593;42.648;23.332;2023-02-15T08:46:30;23.85;;;9.77;;
65831;SDS011;52593;42.648;23.332;2023-02-15T08:48:57;25.45;;;8.73;;
65831;SDS011;52593;42.648;23.332;2023-02-15T08:51:24;26.23;;;9.47;;
65831;SDS011;52593;42.648;23.332;2023-02-15T08:53:53;18.48;;;6.45;;
65831;SDS011;52593;42.648;23.332;2023-02-15T08:56:24;17.15;;;6.32;;
65831;SDS011;52593;42.648;23.332;2023-02-15T08:58:52;17.55;;;6.93;;
65831;SDS011;52593;42.648;23.332;2023-02-15T09:01:19;16.25;;;5.90;;
65831;SDS011;52593;42.648;23.332;2023-02-15T09:03:46;19.83;;;7.97;;
65831;SDS011;52593;42.648;23.332;2023-02-15T09:06:14;21.35;;;9.38;;
65831;SDS011;52593;42.648;23.332;2023-02-15T09:08:41;18.92;;;7.72;;
65831;SDS011;52593;42.648;23.332;2023-02-15T09:11:08;18.48;;;7.90;;
65831;SDS011;52593;42.648;23.332;2023-02-15T09:13:49;17.00;;;7.07;;
65831;SDS011;52593;42.648;23.332;2023-02-15T09:16:16;18.67;;;7.70;;
65831;SDS011;52593;42.648;23.332;2023-02-15T09:18:41;21.97;;;8.70;;
65831;SDS011;52593;42.648;23.332;2023-02-15T09:21:09;23.83;;;8.43;;
65831;SDS011;52593;42.648;23.332;2023-02-15T09:23:39;18.45;;;7.68;;
65831;SDS011;52593;42.648;23.332;2023-02-15T09:26:09;19.60;;;7.63;;
65831;SDS011;52593;42.648;23.332;2023-02-15T09:28:36;20.05;;;7.97;;
65831;SDS011;52593;42.648;23.332;2023-02-15T09:31:06;15.90;;;7.00;;
65831;SDS011;52593;42.648;23.332;2023-02-15T09:33:35;26.00;;;9.27;;
65831;SDS011;52593;42.648;23.332;2023-02-15T09:36:01;16.20;;;6.40;;
65831;SDS011;52593;42.648;23.332;2023-02-15T09:38:27;20.35;;;8.35;;
65831;SDS011;52593;42.648;23.332;2023-02-15T09:40:57;15.83;;;7.23;;
65831;SDS011;52593;42.648;23.332;2023-02-15T09:43:33;23.10;;;8.48;;
65831;SDS011;52593;42.648;23.332;2023-02-15T09:46:23;21.60;;;8.20;;
65831;SDS011;52593;42.648;23.332;2023-02-15T09:48:55;29.45;;;10.07;;
65831;SDS011;52593;42.648;23.332;2023-02-15T09:58:07;24.63;;;8.13;;
65831;SDS011;52593;42.648;23.332;2023-02-15T10:08:24;27.02;;;8.63;;
65831;SDS011;52593;42.648;23.332;2023-02-15T10:17:03;18.70;;;7.70;;
65831;SDS011;52593;42.648;23.332;2023-02-15T10:22:49;20.30;;;9.27;;
65831;SDS011;52593;42.648;23.332;2023-02-15T10:25:51;22.63;;;8.55;;
65831;SDS011;52593;42.648;23.332;2023-02-15T10:31:12;18.80;;;7.28;;
65831;SDS011;52593;42.648;23.332;2023-02-15T10:33:48;28.25;;;11.05;;
65831;SDS011;52593;42.648;23.332;2023-02-15T10:50:55;15.52;;;7.30;;
65831;SDS011;52593;42.648;23.332;2023-02-15T11:02:24;19.00;;;7.30;;
65831;SDS011;52593;42.648;23.332;2023-02-15T11:05:07;22.48;;;8.25;;
65831;SDS011;52593;42.648;23.332;2023-02-15T11:07:48;20.33;;;8.82;;
65831;SDS011;52593;42.648;23.332;2023-02-15T11:10:31;20.10;;;9.60;;
65831;SDS011;52593;42.648;23.332;2023-02-15T11:13:04;24.30;;;9.80;;
65831;SDS011;52593;42.648;23.332;2023-02-15T11:15:44;25.17;;;9.65;;
65831;SDS011;52593;42.648;23.332;2023-02-15T11:18:27;25.45;;;10.05;;
65831;SDS011;52593;42.648;23.332;2023-02-15T11:21:01;25.88;;;9.73;;
65831;SDS011;52593;42.648;23.332;2023-02-15T11:23:47;23.13;;;10.80;;
65831;SDS011;52593;42.648;23.332;2023-02-15T11:26:19;21.58;;;8.45;;
65831;SDS011;52593;42.648;23.332;2023-02-15T11:31:59;31.23;;;10.15;;
65831;SDS011;52593;42.648;23.332;2023-02-15T11:34:35;23.17;;;11.00;;
65831;SDS011;52593;42.648;23.332;2023-02-15T11:37:05;19.87;;;8.00;;
65831;SDS011;52593;42.648;23.332;2023-02-15T11:39:36;28.20;;;10.43;;
65831;SDS011;52593;42.648;23.332;2023-02-15T11:42:11;33.13;;;11.85;;
65831;SDS011;52593;42.648;23.332;2023-02-15T11:44:43;15.70;;;6.50;;
65831;SDS011;52593;42.648;23.332;2023-02-15T11:47:17;21.98;;;9.15;;
65831;SDS011;52593;42.648;23.332;2023-02-15T11:49:42;19.17;;;8.53;;
65831;SDS011;52593;42.648;23.332;2023-02-15T11:52:11;22.08;;;9.13;;
65831;SDS011;52593;42.648;23.332;2023-02-15T11:54:40;21.55;;;9.48;;
65831;SDS011;52593;42.648;23.332;2023-02-15T11:57:14;16.75;;;7.22;;
65831;SDS011;52593;42.648;23.332;2023-02-15T11:59:47;14.48;;;6.15;;
65831;SDS011;52593;42.648;23.332;2023-02-15T12:02:21;19.33;;;7.97;;
65831;SDS011;52593;42.648;23.332;2023-02-15T12:04:49;19.88;;;8.82;;
65831;SDS011;52593;42.648;23.332;2023-02-15T12:07:30;22.40;;;10.02;;
65831;SDS011;52593;42.648;23.332;2023-02-15T12:10:10;21.83;;;9.70;;
65831;SDS011;52593;42.648;23.332;2023-02-15T12:12:39;20.02;;;8.30;;
65831;SDS011;52593;42.648;23.332;2023-02-15T12:15:08;21.53;;;8.67;;
65831;SDS011;52593;42.648;23.332;2023-02-15T12:17:38;21.63;;;9.35;;
65831;SDS011;52593;42.648;23.332;2023-02-15T12:20:18;23.10;;;8.27;;
65831;SDS011;52593;42.648;23.332;2023-02-15T12:22:50;23.65;;;9.20;;
65831;SDS011;52593;42.648;23.332;2023-02-15T12:27:47;26.33;;;11.40;;
65831;SDS011;52593;42.648;23.332;2023-02-15T12:30:21;20.70;;;9.13;;
65831;SDS011;52593;42.648;23.332;2023-02-15T12:32:58;30.17;;;11.75;;
65831;SDS011;52593;42.648;23.332;2023-02-15T12:35:45;16.73;;;7.50;;
65831;SDS011;52593;42.648;23.332;2023-02-15T12:40:39;19.70;;;8.10;;
65831;SDS011;52593;42.648;23.332;2023-02-15T12:43:08;24.90;;;9.05;;
65831;SDS011;52593;42.648;23.332;2023-02-15T12:48:45;23.97;;;9.73;;
65831;SDS011;52593;42.648;23.332;2023-02-15T12:51:13;31.40;;;12.25;;
65831;SDS011;52593;42.648;23.332;2023-02-15T12:53:40;28.27;;;10.70;;
65831;SDS011;52593;42.648;23.332;2023-02-15T12:56:06;24.80;;;10.97;;
65831;SDS011;52593;42.648;23.332;2023-02-15T12:58:36;21.60;;;8.88;;
65831;SDS011;52593;42.648;23.332;2023-02-15T13:03:34;29.17;;;12.25;;
65831;SDS011;52593;42.648;23.332;2023-02-15T13:06:02;28.30;;;10.80;;
65831;SDS011;52593;42.648;23.332;2023-02-15T13:08:37;23.80;;;9.43;;
65831;SDS011;52593;42.648;23.332;2023-02-15T13:11:11;24.33;;;10.38;;
65831;SDS011;52593;42.648;23.332;2023-02-15T13:13:53;21.17;;;9.82;;
65831;SDS011;52593;42.648;23.332;2023-02-15T13:16:38;20.02;;;7.93;;
65831;SDS011;52593;42.648;23.332;2023-02-15T13:19:09;27.23;;;10.77;;
65831;SDS011;52593;42.648;23.332;2023-02-15T13:21:39;18.47;;;8.47;;
65831;SDS011;52593;42.648;23.332;2023-02-15T13:26:43;25.77;;;10.20;;
65831;SDS011;52593;42.648;23.332;2023-02-15T13:29:15;29.65;;;12.20;;
65831;SDS011;52593;42.648;23.332;2023-02-15T13:31:46;26.67;;;10.75;;
65831;SDS011;52593;42.648;23.332;2023-02-15T13:34:14;24.00;;;9.53;;
65831;SDS011;52593;42.648;23.332;2023-02-15T13:37:08;24.63;;;9.30;;
65831;SDS011;52593;42.648;23.332;2023-02-15T13:55:52;23.52;;;9.18;;
65831;SDS011;52593;42.648;23.332;2023-02-15T14:01:34;20.88;;;9.25;;
65831;SDS011;52593;42.648;23.332;2023-02-15T14:20:22;24.70;;;11.23;;
65831;SDS011;52593;42.648;23.332;2023-02-15T14:23:48;16.95;;;7.60;;
65831;SDS011;52593;42.648;23.332;2023-02-15T14:26:31;22.15;;;8.98;;
65831;SDS011;52593;42.648;23.332;2023-02-15T14:31:45;26.70;;;10.93;;
65831;SDS011;52593;42.648;23.332;2023-02-15T14:48:56;32.50;;;12.30;;
65831;SDS011;52593;42.648;23.332;2023-02-15T14:54:11;23.23;;;10.57;;
65831;SDS011;52593;42.648;23.332;2023-02-15T14:59:26;23.33;;;10.05;;
65831;SDS011;52593;42.648;23.332;2023-02-15T15:09:37;30.50;;;11.95;;
65831;SDS011;52593;42.648;23.332;2023-02-15T15:14:46;25.47;;;10.83;;
65831;SDS011;52593;42.648;23.332;2023-02-15T15:19:57;35.22;;;12.57;;
65831;SDS011;52593;42.648;23.332;2023-02-15T15:22:27;35.08;;;12.88;;
65831;SDS011;52593;42.648;23.332;2023-02-15T15:24:55;35.60;;;14.57;;
65831;SDS011;52593;42.648;23.332;2023-02-15T15:35:45;25.83;;;10.18;;
65831;SDS011;52593;42.648;23.332;2023-02-15T15:41:35;19.00;;;8.00;;
65831;SDS011;52593;42.648;23.332;2023-02-15T15:49:34;32.50;;;12.57;;
65831;SDS011;52593;42.648;23.332;2023-02-15T15:52:03;33.03;;;13.80;;
65831;SDS011;52593;42.648;23.332;2023-02-15T15:54:38;35.60;;;13.63;;
65831;SDS011;52593;42.648;23.332;2023-02-15T15:57:05;32.63;;;14.40;;
65831;SDS011;52593;42.648;23.332;2023-02-15T15:59:43;37.30;;;14.10;;
65831;SDS011;52593;42.648;23.332;2023-02-15T16:02:11;38.38;;;14.30;;
65831;SDS011;52593;42.648;23.332;2023-02-15T16:04:41;38.85;;;15.63;;
65831;SDS011;52593;42.648;23.332;2023-02-15T16:09:41;44.58;;;17.85;;
65831;SDS011;52593;42.648;23.332;2023-02-15T16:12:30;48.20;;;19.00;;
65831;SDS011;52593;42.648;23.332;2023-02-15T16:14:57;38.22;;;16.05;;
65831;SDS011;52593;42.648;23.332;2023-02-15T16:17:28;50.25;;;20.05;;
65831;SDS011;52593;42.648;23.332;2023-02-15T16:20:11;47.73;;;18.53;;
65831;SDS011;52593;42.648;23.332;2023-02-15T16:22:43;45.00;;;17.50;;
65831;SDS011;52593;42.648;23.332;2023-02-15T16:27:40;44.35;;;16.23;;
65831;SDS011;52593;42.648;23.332;2023-02-15T16:32:54;39.10;;;15.93;;
65831;SDS011;52593;42.648;23.332;2023-02-15T16:35:28;39.88;;;15.68;;
65831;SDS011;52593;42.648;23.332;2023-02-15T16:37:53;50.30;;;17.20;;
65831;SDS011;52593;42.648;23.332;2023-02-15T16:42:47;43.33;;;16.60;;
65831;SDS011;52593;42.648;23.332;2023-02-15T16:45:13;43.20;;;16.60;;
65831;SDS011;52593;42.648;23.332;2023-02-15T16:47:43;36.47;;;15.27;;
65831;SDS011;52593;42.648;23.332;2023-02-15T16:50:34;40.50;;;15.45;;
65831;SDS011;52593;42.648;23.332;2023-02-15T16:53:03;42.60;;;15.27;;
65831;SDS011;52593;42.648;23.332;2023-02-15T16:55:35;41.20;;;15.25;;
65831;SDS011;52593;42.648;23.332;2023-02-15T16:58:04;43.10;;;16.10;;
65831;SDS011;52593;42.648;23.332;2023-02-15T17:00:36;43.60;;;15.23;;
65831;SDS011;52593;42.648;23.332;2023-02-15T17:13:24;36.03;;;14.70;;
65831;SDS011;52593;42.648;23.332;2023-02-15T17:18:44;42.15;;;15.57;;
65831;SDS011;52593;42.648;23.332;2023-02-15T17:21:16;39.33;;;14.75;;
65831;SDS011;52593;42.648;23.332;2023-02-15T17:23:45;40.17;;;16.70;;
65831;SDS011;52593;42.648;23.332;2023-02-15T17:26:13;37.57;;;15.67;;
65831;SDS011;52593;42.648;23.332;2023-02-15T17:28:47;46.22;;;15.43;;
65831;SDS011;52593;42.648;23.332;2023-02-15T17:31:17;40.90;;;15.80;;
65831;SDS011;52593;42.648;23.332;2023-02-15T17:33:44;40.97;;;16.40;;
65831;SDS011;52593;42.648;23.332;2023-02-15T17:36:16;41.05;;;16.55;;
65831;SDS011;52593;42.648;23.332;2023-02-15T17:41:29;64.72;;;25.15;;
65831;SDS011;52593;42.648;23.332;2023-02-15T17:43:56;43.85;;;17.20;;
65831;SDS011;52593;42.648;23.332;2023-02-15T17:46:22;39.55;;;16.00;;
65831;SDS011;52593;42.648;23.332;2023-02-15T17:48:49;35.85;;;14.88;;
65831;SDS011;52593;42.648;23.332;2023-02-15T17:51:17;41.03;;;16.30;;
65831;SDS011;52593;42.648;23.332;2023-02-15T17:53:44;40.92;;;17.48;;
65831;SDS011;52593;42.648;23.332;2023-02-15T17:56:34;44.50;;;16.30;;
65831;SDS011;52593;42.648;23.332;2023-02-15T17:59:01;51.90;;;20.13;;
65831;SDS011;52593;42.648;23.332;2023-02-15T18:01:31;52.17;;;18.23;;
65831;SDS011;52593;42.648;23.332;2023-02-15T18:04:22;65.40;;;25.17;;
65831;SDS011;52593;42.648;23.332;2023-02-15T18:07:08;52.42;;;20.38;;
65831;SDS011;52593;42.648;23.332;2023-02-15T18:09:52;57.75;;;22.60;;
65831;SDS011;52593;42.648;23.332;2023-02-15T18:12:37;54.10;;;22.58;;
65831;SDS011;52593;42.648;23.332;2023-02-15T18:15:02;72.57;;;25.50;;
65831;SDS011;52593;42.648;23.332;2023-02-15T18:17:33;67.95;;;24.45;;
65831;SDS011;52593;42.648;23.332;2023-02-15T18:20:02;70.53;;;24.25;;
65831;SDS011;52593;42.648;23.332;2023-02-15T18:22:30;61.13;;;23.88;;